createdAt,value
2022-10-14T00:00:07.215Z,97942.19
2022-10-14T00:05:09.927Z,97928.56
2022-10-14T00:10:11.124Z,97926.78
2022-10-14T00:15:12.473Z,97924.66
2022-10-14T00:20:13.687Z,97931.31
2022-10-14T00:25:14.930Z,97936.22
2022-10-14T00:30:16.203Z,97934.53
2022-10-14T00:35:18.031Z,97938.44
2022-10-14T00:40:19.252Z,97932.94
2022-10-14T00:45:20.865Z,97928.03
2022-10-14T00:50:22.303Z,97930.13
2022-10-14T00:55:23.536Z,97932.16
2022-10-14T01:00:24.875Z,97933.00
2022-10-14T01:05:26.135Z,97926.59
2022-10-14T01:10:27.374Z,97929.28
2022-10-14T01:15:28.582Z,97938.13
2022-10-14T01:20:29.786Z,97937.53
2022-10-14T01:25:31.232Z,97929.03
2022-10-14T01:30:32.491Z,97928.66
2022-10-14T01:35:34.326Z,97933.69
2022-10-14T01:40:35.791Z,97937.91
2022-10-14T01:45:37.055Z,97925.63
2022-10-14T01:50:38.407Z,97923.94
2022-10-14T01:55:39.632Z,97913.72
2022-10-14T02:00:40.875Z,97913.50
2022-10-14T02:05:42.261Z,97909.53
2022-10-14T02:10:43.509Z,97911.16
2022-10-14T02:15:44.775Z,97910.59
2022-10-14T02:20:46.019Z,97917.19
2022-10-14T02:25:47.216Z,97913.63
2022-10-14T02:30:48.735Z,97914.81
2022-10-14T02:35:49.978Z,97913.91
2022-10-14T02:40:51.239Z,97914.09
2022-10-14T02:45:52.445Z,97913.47
2022-10-14T02:50:53.680Z,97913.16
2022-10-14T02:55:54.893Z,97904.56
2022-10-14T03:00:56.163Z,97907.16
2022-10-14T03:05:57.491Z,97903.41
2022-10-14T03:10:59.003Z,97903.22
2022-10-14T03:16:00.374Z,97905.41
2022-10-14T03:21:01.670Z,97903.28
2022-10-14T03:26:02.929Z,97897.91
2022-10-14T03:31:04.183Z,97892.13
2022-10-14T03:36:05.407Z,97897.59
2022-10-14T03:41:06.619Z,97893.28
2022-10-14T03:46:07.835Z,97902.28
2022-10-14T03:51:09.103Z,97894.88
2022-10-14T03:56:10.368Z,97893.31
2022-10-14T04:01:11.625Z,97890.56
2022-10-14T04:06:14.264Z,97881.28
2022-10-14T04:11:16.758Z,97875.19
2022-10-14T04:16:17.987Z,97884.06
2022-10-14T04:21:19.250Z,97879.63
2022-10-14T04:26:20.470Z,97878.44
2022-10-14T04:31:22.935Z,97877.91
2022-10-14T04:36:24.167Z,97881.56
2022-10-14T04:41:25.395Z,97891.16
2022-10-14T04:46:26.645Z,97888.03
2022-10-14T04:51:27.930Z,97879.59
2022-10-14T04:56:29.212Z,97881.00
2022-10-14T05:01:33.921Z,97875.50
2022-10-14T05:06:37.377Z,97863.97
2022-10-14T05:11:38.714Z,97860.03
2022-10-14T05:16:39.984Z,97851.53
2022-10-14T05:21:41.201Z,97842.13
2022-10-14T05:26:42.466Z,97837.81
2022-10-14T05:31:43.882Z,97851.19
2022-10-14T05:36:45.088Z,97847.00
2022-10-14T05:41:46.670Z,97856.75
2022-10-14T05:46:48.087Z,97861.38
2022-10-14T05:51:49.425Z,97854.75
2022-10-14T05:56:50.712Z,97856.47
2022-10-14T06:01:51.956Z,97856.31
2022-10-14T06:06:53.168Z,97863.56
2022-10-14T06:11:54.495Z,97865.00
2022-10-14T06:16:55.807Z,97863.91
2022-10-14T06:21:57.179Z,97874.44
2022-10-14T06:26:58.440Z,97873.53
2022-10-14T06:31:59.675Z,97877.63
2022-10-14T06:37:02.361Z,97877.47
2022-10-14T06:42:03.942Z,97876.78
2022-10-14T06:47:05.165Z,97881.06
2022-10-14T06:52:06.384Z,97880.91
2022-10-14T06:57:07.718Z,97881.91
2022-10-14T07:02:08.969Z,97888.00
2022-10-14T07:07:10.371Z,97883.13
2022-10-14T07:12:11.604Z,97879.41
2022-10-14T07:17:12.890Z,97862.66
2022-10-14T07:22:14.192Z,97864.59
2022-10-14T07:27:20.625Z,97869.81
2022-10-14T07:32:22.219Z,97873.59
2022-10-14T07:37:23.929Z,97871.91
2022-10-14T07:42:25.446Z,97881.03
2022-10-14T07:47:26.656Z,97869.03
2022-10-14T07:52:27.881Z,97865.59
2022-10-14T07:57:29.112Z,97871.81
2022-10-14T08:02:30.314Z,97875.31
2022-10-14T08:07:31.688Z,97872.78
2022-10-14T08:12:32.930Z,97871.59
2022-10-14T08:17:34.259Z,97869.25
2022-10-14T08:22:35.529Z,97866.66
2022-10-14T08:27:36.741Z,97870.78
2022-10-14T08:32:38.716Z,97866.09
2022-10-14T08:37:39.918Z,97862.66
2022-10-14T08:42:41.401Z,97856.69
2022-10-14T08:47:42.730Z,97853.41
2022-10-14T08:52:44.009Z,97848.84
2022-10-14T08:57:45.356Z,97854.38
2022-10-14T09:02:46.663Z,97849.25
2022-10-14T09:07:48.047Z,97842.88
2022-10-14T09:12:49.656Z,97838.81
2022-10-14T09:17:51.020Z,97837.50
2022-10-14T09:27:53.566Z,97826.66
2022-10-14T09:32:54.912Z,97829.84
2022-10-14T09:37:56.167Z,97833.69
2022-10-14T09:42:57.415Z,97837.38
2022-10-14T09:47:58.647Z,97839.78
2022-10-14T09:53:00.015Z,97833.72
2022-10-14T09:58:03.616Z,97825.75
2022-10-14T10:03:04.880Z,97826.97
2022-10-14T10:08:06.464Z,97819.53
2022-10-14T10:13:07.714Z,97814.91
2022-10-14T10:18:08.940Z,97819.06
2022-10-14T10:23:10.170Z,97808.31
2022-10-14T10:28:13.375Z,97807.09
2022-10-14T10:33:14.699Z,97794.38
2022-10-14T10:38:15.907Z,97792.59
2022-10-14T10:43:18.591Z,97790.38
2022-10-14T10:48:21.186Z,97785.25
2022-10-14T10:53:23.011Z,97766.88
2022-10-14T10:58:26.338Z,97753.44
2022-10-14T11:03:27.617Z,97750.94
2022-10-14T11:08:47.612Z,97739.19
2022-10-14T11:13:48.938Z,97730.28
2022-10-14T11:18:50.225Z,97720.59
2022-10-14T11:23:57.114Z,97709.91
2022-10-14T11:28:59.562Z,97693.66
2022-10-14T11:34:00.841Z,97694.44
2022-10-14T11:39:02.175Z,97685.44
2022-10-14T11:44:03.385Z,97670.28
2022-10-14T11:49:04.653Z,97675.78
2022-10-14T11:54:05.900Z,97656.94
2022-10-14T11:59:19.351Z,97651.06
2022-10-14T12:04:20.599Z,97639.56
2022-10-14T12:09:21.815Z,97638.47
2022-10-14T12:14:23.048Z,97622.38
2022-10-14T12:19:24.854Z,97617.50
2022-10-14T12:24:26.068Z,97615.44
2022-10-14T12:29:27.270Z,97610.53
2022-10-14T12:34:28.522Z,97615.53
2022-10-14T12:39:29.857Z,97604.13
2022-10-14T12:44:31.187Z,97611.84
2022-10-14T12:49:32.446Z,97607.50
2022-10-14T12:54:33.718Z,97606.72
2022-10-14T12:59:36.463Z,97582.50
2022-10-14T13:04:37.718Z,97579.13
2022-10-14T13:09:39.041Z,97572.91
2022-10-14T13:14:40.553Z,97575.66
2022-10-14T13:19:43.561Z,97574.81
2022-10-14T13:24:44.815Z,97573.53
2022-10-14T13:29:46.048Z,97565.75
2022-10-14T13:34:47.476Z,97558.59
2022-10-14T13:39:48.766Z,97536.81
2022-10-14T13:44:50.004Z,97520.25
2022-10-14T13:49:51.354Z,97503.50
2022-10-14T13:54:52.906Z,97488.97
2022-10-14T14:05:15.502Z,97482.38
2022-10-14T14:10:16.750Z,97477.13
2022-10-14T14:15:17.967Z,97466.38
2022-10-14T14:20:19.219Z,97474.88
2022-10-14T14:25:43.055Z,97500.00
2022-10-14T14:30:41.719Z,97493.66
2022-10-14T14:35:43.107Z,97483.16
2022-10-14T14:40:44.358Z,97470.19
2022-10-14T14:45:46.435Z,97479.31
2022-10-14T14:50:48.823Z,97467.78
2022-10-14T14:55:50.061Z,97468.00
2022-10-14T15:00:51.673Z,97471.38
2022-10-14T15:05:53.032Z,97481.88
2022-10-14T15:10:54.337Z,97493.50
2022-10-14T15:15:55.629Z,97495.53
2022-10-14T15:20:59.843Z,97486.56
2022-10-14T15:26:01.082Z,97477.34
2022-10-14T15:31:05.671Z,97474.25
2022-10-14T15:36:07.865Z,97476.41
2022-10-14T15:41:09.105Z,97469.69
2022-10-14T15:46:29.134Z,97460.03
2022-10-14T15:51:30.595Z,97463.44
2022-10-14T15:56:31.868Z,97458.72
2022-10-14T16:01:34.537Z,97469.13
2022-10-14T16:06:37.152Z,97464.59
2022-10-14T16:11:38.437Z,97449.91
2022-10-14T16:16:39.686Z,97449.06
2022-10-14T16:21:41.164Z,97466.16
2022-10-14T16:26:42.370Z,97477.22
2022-10-14T16:31:43.651Z,97462.31
2022-10-14T16:36:45.005Z,97470.59
2022-10-14T16:41:46.256Z,97468.56
2022-10-14T16:47:06.320Z,97471.69
2022-10-14T16:52:07.569Z,97468.16
2022-10-14T16:57:08.978Z,97479.16
2022-10-14T17:02:11.052Z,97490.94
2022-10-14T17:07:14.710Z,97498.41
2022-10-14T17:12:16.708Z,97492.53
2022-10-14T17:17:18.178Z,97513.34
2022-10-14T17:22:20.824Z,97501.53
2022-10-14T17:27:24.213Z,97503.91
2022-10-14T17:32:28.067Z,97507.16
2022-10-14T17:37:30.897Z,97506.06
2022-10-14T17:42:32.736Z,97515.31
2022-10-14T17:47:34.106Z,97521.06
2022-10-14T17:52:35.312Z,97519.66
2022-10-14T17:57:37.272Z,97523.47
2022-10-14T18:02:38.600Z,97525.44
2022-10-14T18:07:39.943Z,97514.41
2022-10-14T18:12:41.692Z,97502.41
2022-10-14T18:17:43.271Z,97506.13
2022-10-14T18:22:44.595Z,97498.44
2022-10-14T18:27:46.552Z,97497.63
2022-10-14T18:32:47.801Z,97488.47
2022-10-14T18:37:49.055Z,97493.47
2022-10-14T18:42:50.345Z,97480.97
2022-10-14T18:47:52.986Z,97473.00
2022-10-14T18:52:56.015Z,97470.78
2022-10-14T18:57:57.238Z,97464.28
2022-10-14T19:02:58.458Z,97447.41
2022-10-14T19:08:00.227Z,97443.44
2022-10-14T19:13:04.082Z,97444.31
2022-10-14T19:18:05.387Z,97454.38
2022-10-14T19:23:06.959Z,97455.22
2022-10-14T19:28:09.600Z,97458.97
2022-10-14T19:33:10.938Z,97462.50
2022-10-14T19:38:12.146Z,97454.31
2022-10-14T19:43:13.378Z,97460.97
2022-10-14T19:48:14.595Z,97462.63
2022-10-14T19:53:15.857Z,97470.09
2022-10-14T19:58:17.090Z,97467.47
2022-10-14T20:03:18.302Z,97469.38
2022-10-14T20:08:19.642Z,97467.19
2022-10-14T20:13:20.887Z,97463.63
2022-10-14T20:18:22.123Z,97457.03
2022-10-14T20:23:23.357Z,97459.09
2022-10-14T20:28:24.615Z,97448.63
2022-10-14T20:33:25.932Z,97434.56
2022-10-14T20:38:27.228Z,97442.78
2022-10-14T20:43:28.455Z,97438.41
2022-10-14T20:48:30.528Z,97430.66
2022-10-14T20:53:31.826Z,97441.13
2022-10-14T20:58:33.083Z,97424.94
2022-10-14T21:03:34.367Z,97417.91
2022-10-14T21:08:35.748Z,97416.03
2022-10-14T21:13:36.971Z,97407.75
2022-10-14T21:18:38.184Z,97400.31
2022-10-14T21:23:39.392Z,97394.75
2022-10-14T21:28:40.636Z,97388.78
2022-10-14T21:33:41.889Z,97392.75
2022-10-14T21:38:43.285Z,97388.47
2022-10-14T21:43:44.643Z,97381.56
2022-10-14T21:48:45.919Z,97388.56
2022-10-14T21:53:47.306Z,97384.50
2022-10-14T21:58:48.766Z,97387.03
2022-10-14T22:03:50.004Z,97370.16
2022-10-14T22:08:51.213Z,97374.41
2022-10-14T22:13:52.427Z,97364.63
2022-10-14T22:18:53.789Z,97368.22
2022-10-14T22:23:55.075Z,97360.53
2022-10-14T22:28:56.397Z,97353.47
2022-10-14T22:33:57.617Z,97334.72
2022-10-14T22:38:58.935Z,97331.91
2022-10-14T22:44:00.173Z,97323.94
2022-10-14T22:49:02.119Z,97325.31
2022-10-14T22:54:03.423Z,97323.28
2022-10-14T22:59:04.694Z,97318.09
2022-10-14T23:04:05.971Z,97304.94
2022-10-14T23:09:07.235Z,97299.28
2022-10-14T23:14:08.454Z,97303.47
2022-10-14T23:19:09.675Z,97299.16
2022-10-14T23:24:10.893Z,97293.56
2022-10-14T23:29:12.111Z,97292.38
2022-10-14T23:34:13.494Z,97283.63
2022-10-14T23:39:14.738Z,97285.59
2022-10-14T23:44:15.997Z,97281.53
2022-10-14T23:49:31.788Z,97283.44
2022-10-14T23:54:33.100Z,97282.91
2022-10-14T23:59:34.302Z,97285.88
